Terminal Aerodrome Forecast
Issued by NWS Binghamton, NY

Home | Current Version | Previous Version | Text Only | Print | Product List | Glossary On
Versions: 1 2 3 4 5 6 7 8 9 10 11 12 13 14 15 16 17 18 19
000
FTUS41 KBGM 310535
TAFBGM
TAF
KBGM 310535Z 3106/0106 VRB04KT 3SM -SHRA BR SCT004 BKN025
      TEMPO 3106/3110 2SM SHRA BR BKN003
     FM311500 35007KT P6SM BKN015 OVC030
     FM010200 00000KT 3SM BR OVC012
      TEMPO 0104/0106 1 1/2SM BR OVC006=

USA.gov is the U.S. government's official web portal to all federal, state and local government web resources and services.